Time;durP1;ratioP1;P1;durP2;ratioP2;P2;SDS_P1;SDS_P2;PMS_P1;PMS_P2;Temp;Humidity;BMP_temperature;BMP_pressure;BME280_temperature;BME280_humidity;BME280_pressure;Samples;Min_cycle;Max_cycle;Signal;HPM_P1;HPM_P2
2023/06/29 00:01:32;;;;;;;4.60;3.83;;;16.10;74.40;;;;;;5033435;28;20490;-70
2023/06/29 00:03:59;;;;;;;5.87;4.40;;;16.00;74.50;;;;;;5033324;28;20440;-69
2023/06/29 00:06:27;;;;;;;5.70;3.63;;;16.00;74.20;;;;;;5033779;28;20431;-70
2023/06/29 00:08:54;;;;;;;4.03;3.63;;;15.90;74.00;;;;;;5032572;28;20432;-70
2023/06/29 00:11:22;;;;;;;4.93;3.80;;;15.90;74.50;;;;;;5033388;28;20901;-70
2023/06/29 00:13:49;;;;;;;5.00;3.80;;;15.80;74.90;;;;;;5033770;28;20511;-69
2023/06/29 00:16:16;;;;;;;5.23;4.27;;;15.80;74.90;;;;;;5033761;28;20774;-69
2023/06/29 00:18:44;;;;;;;7.93;4.43;;;15.80;74.90;;;;;;5033080;28;20426;-70
2023/06/29 00:21:11;;;;;;;5.83;4.33;;;15.80;75.30;;;;;;5033241;28;20919;-70
2023/06/29 00:23:41;;;;;;;4.50;3.97;;;15.70;75.40;;;;;;5033319;28;20475;-70
2023/06/29 00:26:08;;;;;;;5.40;3.57;;;15.70;75.50;;;;;;5033580;28;20477;-70
2023/06/29 00:28:35;;;;;;;6.73;4.10;;;15.60;75.10;;;;;;5033477;28;20467;-69
2023/06/29 00:31:01;;;;;;;11.70;6.30;;;15.60;75.40;;;;;;5033185;28;20469;-69
2023/06/29 00:33:29;;;;;;;7.87;3.47;;;15.60;75.40;;;;;;5033325;28;20435;-69
2023/06/29 00:35:56;;;;;;;5.50;3.50;;;15.60;75.10;;;;;;5033469;28;20828;-69
2023/06/29 00:38:23;;;;;;;4.73;3.50;;;15.50;74.70;;;;;;5033042;28;20509;-69
2023/06/29 00:40:51;;;;;;;6.83;3.83;;;15.50;74.50;;;;;;5033503;28;20428;-70
2023/06/29 00:43:20;;;;;;;5.70;3.90;;;15.40;75.60;;;;;;5032628;28;20542;-69
2023/06/29 00:45:47;;;;;;;7.80;4.03;;;15.30;76.20;;;;;;5033097;28;20542;-69
2023/06/29 00:48:14;;;;;;;4.53;3.93;;;15.30;76.60;;;;;;5032613;28;20921;-69
2023/06/29 00:50:42;;;;;;;5.53;4.20;;;15.30;77.10;;;;;;5033435;28;20465;-69
2023/06/29 00:53:09;;;;;;;5.43;4.10;;;15.20;77.30;;;;;;5033324;28;20775;-70
2023/06/29 00:55:37;;;;;;;6.10;3.97;;;15.20;77.60;;;;;;5033338;28;20461;-70
2023/06/29 00:58:05;;;;;;;6.47;4.33;;;15.20;77.90;;;;;;5032633;28;20554;-70
2023/06/29 01:00:32;;;;;;;5.00;3.57;;;15.20;78.50;;;;;;5033586;28;21222;-70
2023/06/29 01:02:59;;;;;;;4.90;3.57;;;15.20;78.60;;;;;;5032835;28;20777;-69
2023/06/29 01:05:33;;;;;;;7.87;4.27;;;15.20;77.70;;;;;;5034226;28;20501;-69
2023/06/29 01:08:06;;;;;;;5.70;3.40;;;15.20;77.20;;;;;;5036104;28;20514;-70
2023/06/29 01:10:34;;;;;;;3.90;3.23;;;15.10;77.50;;;;;;5036306;28;20851;-69
2023/06/29 01:13:03;;;;;;;4.30;3.70;;;15.10;76.60;;;;;;5036765;28;20425;-69
2023/06/29 01:15:32;;;;;;;4.37;3.30;;;15.00;76.20;;;;;;5036842;28;20465;-70
2023/06/29 01:18:03;;;;;;;6.10;3.70;;;14.90;76.20;;;;;;5035933;28;20967;-70
2023/06/29 01:20:31;;;;;;;3.93;3.40;;;14.90;77.10;;;;;;5037026;28;20418;-69
2023/06/29 01:23:03;;;;;;;4.53;3.57;;;14.80;77.60;;;;;;5036582;28;20469;-69
2023/06/29 01:25:32;;;;;;;7.60;3.77;;;14.70;78.10;;;;;;5036350;28;20425;-69
2023/06/29 01:27:59;;;;;;;5.73;4.47;;;14.70;78.40;;;;;;5036527;28;20845;-70
2023/06/29 01:30:28;;;;;;;5.43;4.10;;;14.60;78.80;;;;;;5036282;28;20427;-70
2023/06/29 01:32:55;;;;;;;4.80;4.00;;;14.50;78.90;;;;;;5036107;28;20436;-70
2023/06/29 01:35:22;;;;;;;5.00;3.67;;;14.50;79.40;;;;;;5036086;28;20919;-69
2023/06/29 01:37:54;;;;;;;5.43;4.00;;;14.50;79.40;;;;;;5036301;28;20478;-70
2023/06/29 01:40:26;;;;;;;5.80;3.80;;;14.40;79.80;;;;;;5036083;28;20486;-70
2023/06/29 01:42:56;;;;;;;10.93;4.57;;;14.50;80.10;;;;;;5036105;28;20456;-70
2023/06/29 01:45:24;;;;;;;6.63;4.63;;;14.40;81.10;;;;;;5034864;28;20471;-69
2023/06/29 01:47:51;;;;;;;8.13;4.00;;;14.40;80.80;;;;;;5034560;28;20478;-70
2023/06/29 01:50:19;;;;;;;5.03;3.70;;;14.30;80.20;;;;;;5035764;28;20474;-69
2023/06/29 01:52:46;;;;;;;8.30;4.20;;;14.30;80.30;;;;;;5035759;28;20464;-70
2023/06/29 01:55:13;;;;;;;6.43;3.57;;;14.30;80.50;;;;;;5035990;28;20519;-70
2023/06/29 01:57:40;;;;;;;5.97;4.23;;;14.30;80.30;;;;;;5035658;28;20469;-70
2023/06/29 02:00:10;;;;;;;4.57;4.17;;;14.30;80.40;;;;;;5035672;28;20507;-69
2023/06/29 02:02:37;;;;;;;4.37;3.50;;;14.30;80.60;;;;;;5035945;28;20526;-70
2023/06/29 02:05:04;;;;;;;5.03;3.97;;;14.20;80.50;;;;;;5035417;28;20950;-70
2023/06/29 02:07:31;;;;;;;5.00;3.50;;;14.20;81.40;;;;;;5035887;28;20757;-69
2023/06/29 02:09:59;;;;;;;5.40;3.77;;;14.10;81.50;;;;;;5035342;28;20439;-69
2023/06/29 02:12:26;;;;;;;4.43;3.60;;;14.10;80.90;;;;;;5035905;28;20438;-70
2023/06/29 02:14:53;;;;;;;7.60;3.73;;;14.10;81.20;;;;;;5035834;28;20495;-70
2023/06/29 02:17:21;;;;;;;5.57;3.87;;;14.10;80.80;;;;;;5034771;28;20520;-70
2023/06/29 02:19:48;;;;;;;4.80;4.13;;;14.10;80.50;;;;;;5035501;28;20464;-70
2023/06/29 02:22:15;;;;;;;8.83;3.70;;;14.10;80.20;;;;;;5035204;28;20535;-70
2023/06/29 02:24:42;;;;;;;5.00;3.97;;;14.00;80.00;;;;;;5034705;28;20523;-69
2023/06/29 02:27:09;;;;;;;5.70;3.87;;;14.00;80.90;;;;;;5035140;28;21004;-70
2023/06/29 02:29:35;;;;;;;4.90;3.33;;;14.00;80.10;;;;;;5035404;28;20491;-70
2023/06/29 02:32:02;;;;;;;4.00;3.40;;;13.90;80.60;;;;;;5033589;28;20463;-69
2023/06/29 02:34:31;;;;;;;4.50;3.10;;;13.90;81.10;;;;;;5034300;28;20823;-69
2023/06/29 02:36:58;;;;;;;4.10;3.43;;;13.80;81.50;;;;;;5034851;28;20479;-69
2023/06/29 02:39:25;;;;;;;6.10;3.80;;;13.80;81.30;;;;;;5034499;28;20448;-69
2023/06/29 02:41:52;;;;;;;4.60;3.43;;;13.80;81.00;;;;;;5035137;28;20469;-69
2023/06/29 02:44:18;;;;;;;6.10;4.77;;;13.70;81.50;;;;;;5034898;28;20479;-69
2023/06/29 02:46:46;;;;;;;4.90;3.17;;;13.70;81.70;;;;;;5035115;28;20523;-69
2023/06/29 02:49:14;;;;;;;5.73;2.63;;;13.70;81.90;;;;;;5034605;28;20468;-69
2023/06/29 02:51:42;;;;;;;4.00;3.20;;;13.70;81.70;;;;;;5034723;28;20444;-69
2023/06/29 02:54:09;;;;;;;5.27;3.43;;;13.70;81.70;;;;;;5034249;28;20546;-69
2023/06/29 02:56:36;;;;;;;6.00;4.10;;;13.60;81.60;;;;;;5034611;28;20938;-69
2023/06/29 02:59:03;;;;;;;8.60;3.73;;;13.60;81.60;;;;;;5034786;28;20502;-69
2023/06/29 03:01:30;;;;;;;4.00;2.87;;;13.60;82.30;;;;;;5034467;28;20429;-69
2023/06/29 03:03:56;;;;;;;6.47;3.70;;;13.60;81.50;;;;;;5034660;28;20498;-69
2023/06/29 03:06:23;;;;;;;4.50;3.83;;;13.50;81.00;;;;;;5034309;28;20428;-70
2023/06/29 03:08:52;;;;;;;5.80;4.00;;;13.50;81.80;;;;;;5034377;28;20472;-69
2023/06/29 03:11:18;;;;;;;5.27;3.20;;;13.40;80.90;;;;;;5034211;28;20479;-69
2023/06/29 03:13:46;;;;;;;4.43;3.37;;;13.40;81.10;;;;;;5034574;28;20434;-69
2023/06/29 03:16:13;;;;;;;5.17;3.57;;;13.40;81.70;;;;;;5033963;28;20430;-69
2023/06/29 03:18:40;;;;;;;4.50;3.50;;;13.40;82.30;;;;;;5034001;28;20476;-69
2023/06/29 03:21:07;;;;;;;6.73;4.23;;;13.50;82.60;;;;;;5033550;28;20459;-70
2023/06/29 03:23:34;;;;;;;3.83;3.10;;;13.40;82.40;;;;;;5033508;28;20492;-69
2023/06/29 03:26:02;;;;;;;4.90;3.67;;;13.40;82.40;;;;;;5034377;28;20511;-69
2023/06/29 03:28:29;;;;;;;6.80;3.80;;;13.40;82.70;;;;;;5034533;28;20494;-71
2023/06/29 03:30:56;;;;;;;6.03;4.30;;;13.40;83.40;;;;;;5034307;28;20467;-70
2023/06/29 03:33:23;;;;;;;9.80;3.90;;;13.40;84.10;;;;;;5034050;28;20467;-69
2023/06/29 03:35:50;;;;;;;4.93;3.80;;;13.40;84.30;;;;;;5034203;28;20507;-69
2023/06/29 03:38:17;;;;;;;5.10;3.47;;;13.40;84.60;;;;;;5033735;28;20870;-70
2023/06/29 03:40:44;;;;;;;6.97;3.63;;;13.40;84.50;;;;;;5034230;28;20487;-69
2023/06/29 03:43:13;;;;;;;7.23;3.67;;;13.40;84.30;;;;;;5033647;28;20499;-69
2023/06/29 03:45:39;;;;;;;3.83;3.03;;;13.40;83.70;;;;;;5033672;28;20831;-70
2023/06/29 03:48:07;;;;;;;3.93;3.10;;;13.40;83.50;;;;;;5033431;28;20473;-69
2023/06/29 03:50:34;;;;;;;5.77;3.50;;;13.40;83.20;;;;;;5033058;28;20818;-69
2023/06/29 03:53:01;;;;;;;6.17;4.13;;;13.40;82.70;;;;;;5033950;28;20471;-69
2023/06/29 03:55:28;;;;;;;7.03;4.40;;;13.40;82.70;;;;;;5033856;28;20516;-70
2023/06/29 03:57:57;;;;;;;4.43;3.07;;;13.40;82.80;;;;;;5033466;28;20500;-70
2023/06/29 04:00:26;;;;;;;5.63;3.23;;;13.40;83.60;;;;;;5033832;28;20903;-69
2023/06/29 04:02:52;;;;;;;5.67;3.50;;;13.40;84.10;;;;;;5033813;28;20437;-73
2023/06/29 04:05:19;;;;;;;6.50;4.77;;;13.40;83.80;;;;;;5032989;28;20478;-69
2023/06/29 04:07:46;;;;;;;5.27;3.33;;;13.40;84.50;;;;;;5033730;28;20526;-69
2023/06/29 04:10:13;;;;;;;7.20;4.57;;;13.40;85.00;;;;;;5033365;28;20470;-69
2023/06/29 04:12:40;;;;;;;6.37;3.97;;;13.40;85.60;;;;;;5033856;28;20468;-69
2023/06/29 04:15:08;;;;;;;5.40;4.00;;;13.40;85.80;;;;;;5033593;28;20772;-69
2023/06/29 04:17:37;;;;;;;6.47;4.03;;;13.50;86.30;;;;;;5033609;28;20468;-69
2023/06/29 04:20:04;;;;;;;8.20;4.40;;;13.50;86.40;;;;;;5033242;28;20486;-70
2023/06/29 04:22:31;;;;;;;4.60;3.23;;;13.50;86.80;;;;;;5032945;28;20460;-70
2023/06/29 04:24:58;;;;;;;5.00;4.43;;;13.60;86.40;;;;;;5032965;28;20472;-69
2023/06/29 04:27:25;;;;;;;5.20;3.70;;;13.70;86.50;;;;;;5033472;28;20460;-70
2023/06/29 04:29:52;;;;;;;4.63;3.87;;;13.70;86.10;;;;;;5033577;28;20433;-70
2023/06/29 04:32:19;;;;;;;4.97;3.40;;;13.70;86.60;;;;;;5033478;28;21135;-69
2023/06/29 04:34:47;;;;;;;5.47;3.90;;;13.80;86.30;;;;;;5033193;28;20495;-69
2023/06/29 04:37:14;;;;;;;4.63;3.27;;;13.90;87.00;;;;;;5032693;28;20432;-69
2023/06/29 04:39:41;;;;;;;5.23;3.87;;;13.90;86.70;;;;;;5033113;28;20517;-69
2023/06/29 04:42:13;;;;;;;5.80;4.10;;;13.90;86.50;;;;;;5037290;28;20491;-69
2023/06/29 04:44:40;;;;;;;8.17;4.93;;;14.00;86.90;;;;;;5034162;28;20927;-70
2023/06/29 04:47:07;;;;;;;4.87;4.20;;;14.10;87.10;;;;;;5036893;28;20480;-69
2023/06/29 04:49:36;;;;;;;4.93;3.97;;;14.20;87.50;;;;;;5036674;28;20497;-69
2023/06/29 04:52:05;;;;;;;6.07;3.80;;;14.30;88.10;;;;;;5035845;28;20441;-74
2023/06/29 04:54:32;;;;;;;6.30;3.50;;;14.30;88.20;;;;;;5036536;28;20467;-69
2023/06/29 04:56:59;;;;;;;8.33;4.13;;;14.40;87.70;;;;;;5036677;28;20491;-69
2023/06/29 04:59:27;;;;;;;5.83;4.53;;;14.50;87.70;;;;;;5036108;28;20475;-69
2023/06/29 05:01:54;;;;;;;5.07;4.00;;;14.50;88.20;;;;;;5035431;28;20465;-71
2023/06/29 05:04:21;;;;;;;4.27;3.87;;;14.60;87.60;;;;;;5036107;28;20463;-69
2023/06/29 05:06:48;;;;;;;8.03;4.43;;;14.70;86.90;;;;;;5035577;28;20476;-69
2023/06/29 05:09:17;;;;;;;9.77;4.20;;;14.70;87.00;;;;;;5013787;28;20441;-69
2023/06/29 05:11:44;;;;;;;5.50;4.20;;;14.80;87.50;;;;;;5028147;28;20467;-70
2023/06/29 05:14:11;;;;;;;5.53;3.70;;;14.90;87.80;;;;;;5036158;28;20431;-69
2023/06/29 05:16:38;;;;;;;8.07;3.70;;;15.00;88.20;;;;;;5036102;28;20434;-69
2023/06/29 05:19:05;;;;;;;5.50;3.77;;;15.10;88.40;;;;;;5023692;28;20993;-69
2023/06/29 05:21:32;;;;;;;4.10;3.60;;;15.20;88.70;;;;;;5034784;28;20506;-70
2023/06/29 05:23:59;;;;;;;5.33;4.07;;;15.30;89.10;;;;;;5016203;28;20429;-69
2023/06/29 05:26:27;;;;;;;5.20;4.30;;;15.40;88.80;;;;;;5015621;28;20433;-69
2023/06/29 05:28:55;;;;;;;5.33;4.10;;;15.50;89.00;;;;;;5015888;28;20811;-70
2023/06/29 05:31:22;;;;;;;5.70;3.47;;;15.60;89.20;;;;;;5015394;28;20555;-70
2023/06/29 05:33:48;;;;;;;6.77;3.97;;;15.70;89.10;;;;;;5019733;28;20447;-69
2023/06/29 05:36:15;;;;;;;4.27;3.43;;;15.80;88.50;;;;;;5035277;28;20476;-69
2023/06/29 05:38:42;;;;;;;5.00;3.87;;;16.00;88.50;;;;;;5029953;28;20560;-70
2023/06/29 05:41:09;;;;;;;6.47;4.23;;;16.10;88.60;;;;;;5035210;28;20498;-70
2023/06/29 05:43:38;;;;;;;5.67;4.00;;;16.20;88.70;;;;;;5035326;28;20459;-70
2023/06/29 05:46:05;;;;;;;6.47;3.77;;;16.30;87.70;;;;;;5035460;28;20502;-69
2023/06/29 05:48:32;;;;;;;4.30;2.90;;;16.40;88.00;;;;;;5034994;28;20443;-72
2023/06/29 05:50:59;;;;;;;5.67;4.90;;;16.50;87.90;;;;;;5035069;28;20897;-72
2023/06/29 05:53:26;;;;;;;9.20;4.13;;;16.60;87.30;;;;;;5034640;28;20432;-71
2023/06/29 05:55:53;;;;;;;8.60;4.07;;;16.70;86.70;;;;;;5035215;28;20467;-71
2023/06/29 05:58:22;;;;;;;4.50;3.93;;;16.80;87.10;;;;;;5034602;28;20477;-71
2023/06/29 06:00:52;;;;;;;8.30;3.77;;;16.90;86.70;;;;;;5035148;28;20470;-71
2023/06/29 06:03:20;;;;;;;5.17;3.50;;;17.00;86.30;;;;;;5035027;28;20444;-72
2023/06/29 06:05:47;;;;;;;6.10;3.93;;;17.10;85.50;;;;;;5034830;28;20470;-73
2023/06/29 06:08:14;;;;;;;10.60;3.90;;;17.10;84.10;;;;;;5026624;28;20486;-70
2023/06/29 06:10:41;;;;;;;4.63;3.70;;;17.20;83.50;;;;;;5015223;28;20828;-69
2023/06/29 06:13:24;;;;;;;4.80;3.33;;;17.30;84.20;;;;;;5015555;28;20437;-69
2023/06/29 06:16:01;;;;;;;6.20;4.20;;;17.50;84.50;;;;;;5014997;28;20429;-69
2023/06/29 06:18:34;;;;;;;4.70;3.77;;;17.60;84.50;;;;;;5017765;28;20970;-69
2023/06/29 06:21:06;;;;;;;5.83;3.27;;;17.70;84.60;;;;;;5034722;28;20778;-69
2023/06/29 06:23:33;;;;;;;5.30;3.20;;;17.80;85.30;;;;;;5035019;28;20909;-69
2023/06/29 06:26:00;;;;;;;3.60;2.77;;;18.00;84.10;;;;;;5034502;28;20932;-70
2023/06/29 06:28:27;;;;;;;4.90;3.10;;;18.10;84.20;;;;;;5034147;28;20437;-69
2023/06/29 06:30:54;;;;;;;9.03;3.17;;;18.20;83.30;;;;;;5018677;28;20442;-71
2023/06/29 06:33:23;;;;;;;5.23;3.90;;;18.30;82.90;;;;;;5025489;28;20465;-69
2023/06/29 06:35:50;;;;;;;9.50;2.90;;;18.30;79.80;;;;;;5019274;28;20450;-70
2023/06/29 06:38:19;;;;;;;6.23;3.10;;;18.30;79.00;;;;;;5021451;28;20445;-69
2023/06/29 06:40:47;;;;;;;5.83;3.30;;;18.50;80.70;;;;;;5015915;28;20443;-69
2023/06/29 06:43:15;;;;;;;4.63;2.90;;;18.60;79.90;;;;;;5033534;28;20468;-69
2023/06/29 06:45:45;;;;;;;4.50;2.83;;;18.60;80.00;;;;;;5034057;28;20911;-70
2023/06/29 06:48:23;;;;;;;4.00;2.93;;;18.70;79.80;;;;;;5027018;28;20451;-69
2023/06/29 06:50:50;;;;;;;5.57;3.13;;;18.80;79.50;;;;;;5034676;28;20824;-69
2023/06/29 06:53:17;;;;;;;7.03;2.50;;;18.90;79.10;;;;;;5034203;28;20445;-69
2023/06/29 06:55:47;;;;;;;5.50;3.10;;;19.00;78.70;;;;;;5034735;28;21000;-69
2023/06/29 06:58:16;;;;;;;7.50;3.50;;;19.10;78.50;;;;;;5034649;28;20426;-69
2023/06/29 07:00:44;;;;;;;5.10;3.17;;;19.10;78.40;;;;;;5034775;28;20868;-69
2023/06/29 07:03:12;;;;;;;5.23;2.73;;;19.20;77.70;;;;;;5034219;28;20434;-69
2023/06/29 07:05:41;;;;;;;5.13;3.00;;;19.30;77.40;;;;;;5035140;28;20432;-69
2023/06/29 07:08:24;;;;;;;6.17;3.33;;;19.50;77.00;;;;;;5034828;28;20432;-69
2023/06/29 07:10:53;;;;;;;4.73;2.53;;;19.70;76.70;;;;;;5034677;28;20445;-69
2023/06/29 07:13:34;;;;;;;4.50;2.93;;;19.80;75.70;;;;;;5034420;28;20433;-69
2023/06/29 07:16:06;;;;;;;8.10;3.37;;;19.80;75.80;;;;;;5034416;28;20441;-69
2023/06/29 07:18:36;;;;;;;5.03;3.17;;;20.00;76.10;;;;;;5034484;28;20422;-69
2023/06/29 07:21:04;;;;;;;5.53;3.07;;;20.10;75.00;;;;;;5034236;28;20523;-69
2023/06/29 07:23:31;;;;;;;6.17;3.30;;;20.20;74.30;;;;;;5034527;28;20433;-69
2023/06/29 07:26:01;;;;;;;7.93;3.17;;;20.30;73.20;;;;;;5034490;28;20472;-69
2023/06/29 07:28:30;;;;;;;4.07;2.70;;;20.40;73.40;;;;;;5034572;28;20746;-69
2023/06/29 07:30:58;;;;;;;4.30;3.07;;;20.50;73.10;;;;;;5034382;28;20438;-69
2023/06/29 07:33:25;;;;;;;7.87;3.37;;;20.60;72.50;;;;;;5034218;28;20433;-69
2023/06/29 07:35:56;;;;;;;5.67;2.87;;;20.80;70.80;;;;;;5033969;28;20434;-69
2023/06/29 07:38:25;;;;;;;5.37;2.77;;;20.90;69.20;;;;;;5033870;28;20963;-69
2023/06/29 07:40:57;;;;;;;5.60;2.30;;;21.00;69.50;;;;;;5034072;28;20822;-69
2023/06/29 07:43:28;;;;;;;4.97;3.20;;;21.10;70.00;;;;;;5033728;28;20488;-69
2023/06/29 07:45:56;;;;;;;4.40;3.00;;;21.20;70.40;;;;;;5033794;28;20419;-69
2023/06/29 07:48:24;;;;;;;5.90;3.23;;;21.30;68.70;;;;;;5034029;28;20431;-69
2023/06/29 07:50:52;;;;;;;8.00;2.50;;;21.30;66.90;;;;;;5033995;28;20426;-69
2023/06/29 07:53:19;;;;;;;7.87;2.67;;;21.40;66.30;;;;;;5033442;28;20911;-69
2023/06/29 07:55:48;;;;;;;3.67;2.23;;;21.50;66.60;;;;;;5034057;28;20506;-69
2023/06/29 07:58:15;;;;;;;5.37;2.90;;;21.60;66.60;;;;;;5033602;28;20433;-69
2023/06/29 08:00:42;;;;;;;5.30;2.23;;;21.70;65.60;;;;;;5033456;28;20497;-69
2023/06/29 08:03:09;;;;;;;4.40;2.33;;;21.80;66.20;;;;;;5033578;28;20469;-69
2023/06/29 08:05:36;;;;;;;5.00;2.90;;;22.00;65.60;;;;;;5033517;28;20469;-69
2023/06/29 08:08:03;;;;;;;5.03;2.70;;;22.20;64.70;;;;;;5033469;28;20440;-69
2023/06/29 08:10:30;;;;;;;3.57;2.17;;;22.30;61.60;;;;;;5033514;28;20470;-69
2023/06/29 08:12:58;;;;;;;4.17;2.37;;;22.40;61.10;;;;;;5033764;28;20438;-69
2023/06/29 08:15:25;;;;;;;3.80;2.30;;;22.50;61.60;;;;;;5030364;28;20423;-69
2023/06/29 08:17:52;;;;;;;4.10;2.37;;;22.60;59.00;;;;;;5033433;28;20494;-69
2023/06/29 08:20:19;;;;;;;4.67;2.60;;;22.60;59.00;;;;;;5033053;28;20559;-69
2023/06/29 08:22:48;;;;;;;4.93;2.43;;;22.80;60.60;;;;;;5033253;28;20914;-69
2023/06/29 08:25:15;;;;;;;4.13;2.50;;;23.00;59.20;;;;;;5033110;28;20522;-69
2023/06/29 08:27:42;;;;;;;7.33;2.63;;;23.10;55.30;;;;;;5033150;28;20907;-69
2023/06/29 08:30:12;;;;;;;6.17;2.20;;;23.10;54.10;;;;;;5033173;28;20471;-69
2023/06/29 08:32:39;;;;;;;3.43;1.90;;;23.10;54.50;;;;;;5033351;28;20472;-69
2023/06/29 08:35:07;;;;;;;5.30;2.17;;;23.30;55.10;;;;;;5033381;28;20464;-69
2023/06/29 08:37:34;;;;;;;3.53;2.10;;;23.30;54.30;;;;;;5033517;28;20433;-69
2023/06/29 08:40:01;;;;;;;5.60;2.00;;;23.40;53.40;;;;;;5033315;28;20479;-69
2023/06/29 08:42:28;;;;;;;6.03;2.43;;;23.50;51.00;;;;;;5033379;28;20844;-69
2023/06/29 08:44:55;;;;;;;4.77;2.10;;;23.50;51.50;;;;;;5033069;28;20447;-69
2023/06/29 08:47:25;;;;;;;3.10;1.83;;;23.60;51.50;;;;;;5033430;28;20846;-69
2023/06/29 08:49:56;;;;;;;4.53;2.07;;;23.80;51.00;;;;;;5033058;28;20439;-69
2023/06/29 08:52:26;;;;;;;4.00;2.10;;;23.90;50.50;;;;;;5033250;28;20419;-69
2023/06/29 08:54:54;;;;;;;5.00;2.43;;;24.00;49.50;;;;;;5033211;28;20821;-69
2023/06/29 08:57:27;;;;;;;5.17;1.97;;;24.10;48.30;;;;;;5033207;28;20424;-69
2023/06/29 08:59:55;;;;;;;3.57;2.00;;;24.10;47.80;;;;;;5032813;28;21076;-70
2023/06/29 09:02:24;;;;;;;4.70;2.17;;;24.20;48.60;;;;;;5033426;28;20459;-70
2023/06/29 09:04:51;;;;;;;3.53;1.90;;;24.40;49.20;;;;;;5033306;28;20437;-69
2023/06/29 09:07:18;;;;;;;5.20;1.70;;;24.60;48.60;;;;;;5033265;28;20491;-69
2023/06/29 09:09:45;;;;;;;3.17;1.57;;;24.70;48.20;;;;;;5033222;28;20496;-69
2023/06/29 09:12:12;;;;;;;5.63;2.27;;;24.90;47.20;;;;;;5033217;28;20441;-70
2023/06/29 09:14:43;;;;;;;5.20;2.13;;;25.10;47.30;;;;;;5032874;28;20907;-69
2023/06/29 09:17:14;;;;;;;4.93;3.30;;;25.20;46.50;;;;;;5032896;28;20937;-69
2023/06/29 09:19:50;;;;;;;6.30;2.20;;;25.20;45.40;;;;;;5032779;28;20472;-69
2023/06/29 09:22:18;;;;;;;3.77;2.17;;;25.40;45.70;;;;;;5033152;28;20416;-69
2023/06/29 09:24:46;;;;;;;3.67;1.80;;;25.50;44.90;;;;;;5032721;28;20440;-69
2023/06/29 09:27:13;;;;;;;7.20;1.80;;;25.60;45.00;;;;;;5035054;28;20430;-69
2023/06/29 09:29:40;;;;;;;3.10;1.80;;;25.80;43.50;;;;;;5036311;28;20839;-69
2023/06/29 09:32:14;;;;;;;4.67;2.10;;;25.80;43.20;;;;;;5036281;28;20461;-69
2023/06/29 09:34:47;;;;;;;3.53;1.63;;;26.00;42.60;;;;;;5036514;28;20505;-69
2023/06/29 09:37:15;;;;;;;4.13;1.93;;;26.10;43.10;;;;;;5036602;28;20453;-69
2023/06/29 09:39:52;;;;;;;5.00;1.80;;;26.20;42.40;;;;;;5036019;28;20466;-69
2023/06/29 09:42:20;;;;;;;2.57;1.70;;;26.30;41.60;;;;;;5036152;28;20994;-69
2023/06/29 09:44:47;;;;;;;3.47;1.70;;;26.40;41.20;;;;;;5036270;28;20434;-69
2023/06/29 09:47:14;;;;;;;3.00;1.60;;;26.50;41.60;;;;;;5035877;28;20438;-69
2023/06/29 09:49:47;;;;;;;4.03;2.50;;;26.60;41.30;;;;;;5036136;28;20442;-69
2023/06/29 09:52:15;;;;;;;3.33;1.80;;;26.70;40.10;;;;;;5036264;28;20419;-69
2023/06/29 09:54:44;;;;;;;4.47;1.77;;;26.80;39.80;;;;;;5035875;28;20426;-69
2023/06/29 09:57:12;;;;;;;3.53;2.20;;;26.80;39.20;;;;;;5036077;28;20508;-69
2023/06/29 09:59:40;;;;;;;4.60;1.90;;;26.90;38.70;;;;;;5035798;28;20481;-69
2023/06/29 10:02:08;;;;;;;4.80;2.23;;;26.90;39.20;;;;;;5035989;28;20433;-70
2023/06/29 10:04:35;;;;;;;3.00;1.80;;;27.00;38.80;;;;;;5035819;28;20437;-69
2023/06/29 10:07:07;;;;;;;4.57;2.30;;;27.20;39.00;;;;;;5035361;28;20460;-69
2023/06/29 10:09:38;;;;;;;3.10;1.50;;;27.30;38.90;;;;;;5035937;28;20796;-69
2023/06/29 10:12:08;;;;;;;3.60;1.63;;;27.40;37.10;;;;;;5034263;28;20509;-69
2023/06/29 10:14:36;;;;;;;3.23;1.80;;;27.40;37.10;;;;;;5035418;28;20476;-69
2023/06/29 10:17:08;;;;;;;4.60;2.30;;;27.40;36.40;;;;;;5035422;28;20469;-70
2023/06/29 10:19:37;;;;;;;4.00;1.70;;;27.40;35.00;;;;;;5035256;28;20454;-69
2023/06/29 10:22:10;;;;;;;5.20;2.30;;;27.40;34.20;;;;;;5035720;28;20522;-69
2023/06/29 10:24:41;;;;;;;5.27;2.07;;;27.40;35.10;;;;;;5035659;28;20418;-69
2023/06/29 10:27:10;;;;;;;3.73;1.60;;;27.50;36.40;;;;;;5035601;28;20425;-69
2023/06/29 10:29:45;;;;;;;3.43;1.27;;;27.60;37.00;;;;;;5035233;28;20465;-69
2023/06/29 10:32:30;;;;;;;8.87;5.10;;;27.80;36.80;;;;;;5035147;28;20457;-70
2023/06/29 10:35:11;;;;;;;13.50;7.20;;;27.90;36.00;;;;;;5034948;28;20454;-69
2023/06/29 10:37:43;;;;;;;10.60;6.83;;;28.00;34.40;;;;;;5035122;28;20465;-69
2023/06/29 10:40:18;;;;;;;4.53;2.00;;;28.00;34.50;;;;;;5035306;28;20454;-69
2023/06/29 10:42:55;;;;;;;3.17;1.57;;;28.10;35.10;;;;;;5035045;28;20485;-69
2023/06/29 10:45:36;;;;;;;4.80;2.50;;;28.20;33.80;;;;;;5034839;28;20434;-69
2023/06/29 10:48:08;;;;;;;4.87;1.80;;;28.20;32.80;;;;;;5035065;28;20426;-69
2023/06/29 10:50:43;;;;;;;3.37;1.50;;;28.20;33.00;;;;;;5034783;28;20429;-69
2023/06/29 10:53:14;;;;;;;4.07;2.20;;;28.30;31.40;;;;;;5034811;28;20918;-69
2023/06/29 10:55:50;;;;;;;3.83;1.67;;;28.30;32.60;;;;;;5034673;28;20419;-69
2023/06/29 10:58:20;;;;;;;3.07;1.70;;;28.30;32.80;;;;;;5034670;28;20450;-69
2023/06/29 11:00:52;;;;;;;7.30;2.13;;;28.40;33.40;;;;;;5034880;28;20539;-69
2023/06/29 11:03:20;;;;;;;2.60;1.33;;;28.50;34.10;;;;;;5035049;28;20418;-70
2023/06/29 11:05:51;;;;;;;10.87;3.30;;;28.60;34.00;;;;;;5034255;28;20431;-69
2023/06/29 11:11:14;;;;;;;5.27;2.57;;;28.70;32.40;;;;;;5023441;28;20447;-72
2023/06/29 11:13:42;;;;;;;9.20;4.47;;;28.80;33.10;;;;;;5013306;28;20797;-69
2023/06/29 11:16:09;;;;;;;8.07;2.30;;;28.90;32.70;;;;;;5025279;28;20445;-70
2023/06/29 11:18:47;;;;;;;5.90;2.53;;;29.00;33.20;;;;;;5024447;28;20443;-70
2023/06/29 11:21:14;;;;;;;5.47;2.73;;;29.10;32.50;;;;;;5021792;28;20489;-70
2023/06/29 11:23:51;;;;;;;5.40;2.70;;;29.10;31.90;;;;;;5034133;28;20770;-70
2023/06/29 11:26:20;;;;;;;6.30;3.20;;;29.10;31.90;;;;;;5027293;28;20437;-69
2023/06/29 11:28:48;;;;;;;4.33;1.87;;;29.20;32.10;;;;;;5013485;28;20431;-70
2023/06/29 11:31:16;;;;;;;2.67;1.50;;;29.30;32.80;;;;;;5020431;28;20473;-69
2023/06/29 11:33:49;;;;;;;4.53;1.90;;;29.40;32.00;;;;;;5026082;28;20427;-69
2023/06/29 11:36:26;;;;;;;4.10;1.87;;;29.50;32.20;;;;;;4997929;28;20442;-70
2023/06/29 11:39:08;;;;;;;3.87;1.63;;;29.60;31.60;;;;;;5033359;28;20423;-70
2023/06/29 11:41:35;;;;;;;4.97;3.00;;;29.70;31.40;;;;;;5022731;28;20466;-69
2023/06/29 11:44:02;;;;;;;3.17;1.93;;;29.70;30.90;;;;;;5033539;28;20473;-70
2023/06/29 11:46:33;;;;;;;6.10;2.97;;;29.70;30.70;;;;;;5033752;28;20430;-69
2023/06/29 11:49:01;;;;;;;4.70;2.30;;;29.70;31.50;;;;;;5033042;28;20414;-70
2023/06/29 11:51:29;;;;;;;3.63;2.00;;;29.80;31.10;;;;;;5032737;28;20920;-70
2023/06/29 11:53:57;;;;;;;3.90;2.00;;;29.90;30.30;;;;;;5033982;28;20430;-70
2023/06/29 11:56:26;;;;;;;3.30;1.80;;;29.80;30.40;;;;;;5033373;28;20492;-70
2023/06/29 11:58:53;;;;;;;4.70;2.33;;;29.90;30.50;;;;;;5033717;28;20435;-70
2023/06/29 12:01:20;;;;;;;3.20;2.07;;;30.00;30.50;;;;;;5033332;28;20536;-69
2023/06/29 12:03:48;;;;;;;7.30;2.57;;;29.90;30.60;;;;;;5033617;28;20434;-70
2023/06/29 12:06:15;;;;;;;4.07;2.53;;;30.00;31.00;;;;;;5033795;28;20780;-70
2023/06/29 12:08:42;;;;;;;4.53;2.70;;;30.00;30.40;;;;;;5033690;28;20568;-69
2023/06/29 12:11:16;;;;;;;4.47;2.87;;;30.00;30.00;;;;;;5033211;28;20917;-70
2023/06/29 12:13:49;;;;;;;6.77;3.07;;;30.10;29.50;;;;;;5033385;28;20822;-70
2023/06/29 12:16:17;;;;;;;4.30;3.20;;;30.10;28.70;;;;;;5033525;28;20422;-70
2023/06/29 12:18:44;;;;;;;5.47;2.90;;;30.00;29.70;;;;;;5033449;28;20497;-69
2023/06/29 12:21:11;;;;;;;3.57;2.50;;;30.00;29.80;;;;;;5033412;28;20474;-70
2023/06/29 12:23:38;;;;;;;4.87;2.70;;;30.10;29.50;;;;;;5033464;28;20430;-69
2023/06/29 12:26:04;;;;;;;3.83;2.67;;;30.20;30.50;;;;;;5033089;28;20959;-69
2023/06/29 12:28:32;;;;;;;5.13;3.30;;;30.20;30.00;;;;;;5033085;28;20434;-69
2023/06/29 12:31:03;;;;;;;6.20;3.20;;;30.30;29.90;;;;;;5033519;28;20784;-69
2023/06/29 12:33:30;;;;;;;4.27;2.30;;;30.30;29.80;;;;;;5033445;28;20426;-70
2023/06/29 12:35:58;;;;;;;3.60;2.30;;;30.40;29.40;;;;;;5033344;28;20439;-69
2023/06/29 12:38:25;;;;;;;4.50;3.43;;;30.40;29.30;;;;;;5033044;28;20435;-72
2023/06/29 12:40:52;;;;;;;11.73;4.13;;;30.50;30.00;;;;;;5032992;28;20505;-69
2023/06/29 12:43:19;;;;;;;4.17;3.10;;;30.60;30.30;;;;;;5032908;28;20470;-69
2023/06/29 12:45:46;;;;;;;4.07;3.07;;;30.70;29.50;;;;;;5033340;28;20528;-69
2023/06/29 12:48:15;;;;;;;3.77;2.57;;;30.70;29.10;;;;;;5033060;28;20920;-70
2023/06/29 12:50:42;;;;;;;5.27;3.40;;;30.70;29.00;;;;;;5033320;28;20442;-70
2023/06/29 12:53:09;;;;;;;5.70;4.40;;;30.70;28.70;;;;;;5033277;28;20506;-69
2023/06/29 12:55:36;;;;;;;4.63;2.77;;;30.70;29.40;;;;;;5033197;28;20435;-70